Flight Track Log - Related Links

Times and Time Zones

All times are in EDT time to prevent confusion due to time zone crossing. See the SWA1383 flight status page for this flight to view local times or setup timezone preferences in your user account.

Time Position Orientation Groundspeed Altitude Reporting Facility
EDT Latitude Longitude Course Direction KTS MPH feet Rate Location/Type
Sat 04:47:30 PM 42.7611 -73.8089 332° Northwest 138 159 1,400  Level Boston Center
Sat 04:48:31 PM 42.8044 -73.8408 297° West 191 220 3,900 3,590 Climbing Boston Center
Sat 04:49:27 PM 42.8267 -73.9008 241° Southwest 227 261 8,400 4,086 Climbing Boston Center
Sat 04:50:27 PM 42.7942 -73.9822 178° South 203 234 11,800 3,750 Climbing Boston Center
Sat 04:51:27 PM 42.7006 -73.9769 162° South 223 257 15,900 3,700 Climbing Boston Center
Sat 04:52:27 PM 42.5989 -73.9322 164° South 270 311 19,200 3,500 Climbing Boston Center
Sat 04:53:27 PM 42.4911 -73.8900 165° South 347 399 22,900 3,450 Climbing Boston Center
Sat 04:54:27 PM 42.3853 -73.8511 162° South 381 438 26,100 2,550 Climbing Boston Center
Sat 04:55:27 PM 42.2775 -73.8039 164° South 399 459 28,000 950 Climbing Boston Center
Sat 04:56:27 PM 42.1675 -73.7622 164° South 405 466 28,000  Level Boston Center
Sat 04:57:27 PM 42.0453 -73.7150 167° South 433 498 28,000  Level Boston Center
Sat 04:58:27 PM 41.9247 -73.6761 204° Southwest 440 506 28,000  Level Boston Center
Sat 04:59:27 PM 41.8283 -73.7328 206° Southwest 399 459 28,000  Level Boston Center
Sat 05:01:52 PM 41.6039 -73.8783 208° Southwest 376 433 28,000  Level New York Center
Sat 05:02:53 PM 41.5147 -73.9406 205° Southwest 376 433 28,000  Level New York Center
Sat 05:03:53 PM 41.4214 -73.9997 205° Southwest 376 433 28,000  Level New York Center
Sat 05:04:53 PM 41.3325 -74.0561 206° Southwest 376 433 28,000  Level New York Center
Sat 05:05:52 PM 41.2369 -74.1178 206° Southwest 376 433 28,000  Level New York Center
Sat 05:06:52 PM 41.1458 -74.1767 205° Southwest 376 433 28,000  Level New York Center
Sat 05:07:53 PM 41.0503 -74.2350 207° Southwest 376 433 28,000  Level New York Center
Sat 05:08:54 PM 40.9569 -74.2989 206° Southwest 376 433 28,000  Level New York Center
Sat 05:09:51 PM 40.8614 -74.3600 212° Southwest 376 433 28,000  Level New York Center
Sat 05:10:52 PM 40.7736 -74.4319 231° Southwest 376 433 28,000  Level New York Center
Sat 05:11:52 PM 40.7122 -74.5328 231° Southwest 357 411 28,000  Level New York Center
Sat 05:12:53 PM 40.6506 -74.6333 231° Southwest 357 411 28,000  Level New York Center
Sat 05:13:52 PM 40.5867 -74.7361 228° Southwest 362 417 28,000  Level New York Center
Sat 05:14:53 PM 40.5208 -74.8333 226° Southwest 362 417 28,000  Level New York Center
Sat 05:15:54 PM 40.4400 -74.9431 228° Southwest 373 429 28,000  Level New York Center
Sat 05:16:52 PM 40.3828 -75.0269 226° Southwest 365 420 28,000 -50 Level New York Center
Sat 05:17:54 PM 40.3039 -75.1336 228° Southwest 365 420 27,900 -1,109 Descending New York Center
Sat 05:18:51 PM 40.2464 -75.2169 227° Southwest 356 410 25,800 -2,237 Descending New York Center
Sat 05:19:52 PM 40.1828 -75.3053 227° Southwest 351 404 23,500 -2,281 Descending New York Center
Sat 05:20:52 PM 40.1208 -75.3936 226° Southwest 346 398 21,200 -2,380 Descending New York Center
Sat 05:21:53 PM 40.0550 -75.4814 232° Southwest 346 398 18,700 -1,587 Descending New York Center
Sat 05:22:53 PM 39.9944 -75.5831 234° Southwest 340 391 18,000 -661 Descending New York Center
Sat 05:23:51 PM 39.9494 -75.6639 232° Southwest 326 375 17,400 -1,261 Descending New York Center
Sat 05:24:52 PM 39.8889 -75.7653 233° Southwest 326 375 15,500 -1,918 Descending New York Center
Sat 05:25:53 PM 39.8417 -75.8456 231° Southwest 326 375 13,500 -1,154 Descending New York Center
Sat 05:27:54 PM 39.7333 -76.0167 243° Southwest 281 323 12,000 -495 Descending Potomac TRACON
Sat 05:28:55 PM 39.7000 -76.1000 226° Southwest 253 291 12,000 -198 Level Potomac TRACON
Sat 05:29:55 PM 39.6500 -76.1667 218° Southwest 237 273 11,600 -700 Descending Potomac TRACON
Sat 05:30:55 PM 39.6000 -76.2167 218° Southwest 247 284 10,600 -1,200 Descending Potomac TRACON
Sat 05:31:55 PM 39.5500 -76.2667 218° Southwest 245 282 9,200 -1,714 Descending Potomac TRACON
Sat 05:33:01 PM 39.4833 -76.3333 226° Southwest 259 298 7,000 -1,835 Descending Potomac TRACON
Sat 05:33:56 PM 39.4333 -76.4000 191° South 260 299 5,500 -1,565 Descending Potomac TRACON
Sat 05:34:56 PM 39.3667 -76.4167 201° Southwest 262 302 4,000 -750 Descending Potomac TRACON
Sat 05:35:56 PM 39.3000 -76.4500 191° South 253 291 4,000 -100 Level Potomac TRACON
Sat 05:36:56 PM 39.2333 -76.4667 191° South 234 269 3,800 -500 Descending Potomac TRACON
Sat 05:37:56 PM 39.1667 -76.4833 207° Southwest 220 253 3,000 -694 Descending Potomac TRACON
Sat 05:38:57 PM 39.1167 -76.5167 229° Southwest 215 247 2,400 -545 Descending Potomac TRACON
Sat 05:39:57 PM 39.0833 -76.5667 293° West 191 220 1,900 -381 Descending Potomac TRACON
Sat 05:41:03 PM 39.1000 -76.6167 339° North 145 167 1,600 -476 Descending Potomac TRACON
Sat 05:42:03 PM 39.1333 -76.6333 339° North 124 143 900 -700 Descending Potomac TRACON

Login

Don't have an account? Register now (free) for customized features, flight alerts, and more!